createdAt,value
2023-03-01T00:00:34.273Z,90.81
2023-03-01T00:03:04.734Z,90.81
2023-03-01T00:05:35.705Z,90.98
2023-03-01T00:08:06.369Z,90.69
2023-03-01T00:10:37.356Z,90.69
2023-03-01T00:13:07.882Z,91.23
2023-03-01T00:15:40.598Z,91.88
2023-03-01T00:18:12.063Z,91.88
2023-03-01T00:20:44.735Z,92.02
2023-03-01T00:23:15.982Z,91.69
2023-03-01T00:25:46.817Z,91.95
2023-03-01T00:28:17.861Z,91.95
2023-03-01T00:30:49.215Z,92.35
2023-03-01T00:33:19.966Z,92.55
2023-03-01T00:35:50.265Z,92.60
2023-03-01T00:38:20.758Z,92.60
2023-03-01T00:40:51.145Z,92.60
2023-03-01T00:43:22.512Z,93.07
2023-03-01T00:45:52.942Z,92.18
2023-03-01T00:48:23.716Z,92.18
2023-03-01T00:50:55.397Z,93.23
2023-03-01T00:53:26.216Z,92.53
2023-03-01T00:55:59.574Z,92.68
2023-03-01T00:58:30.115Z,92.50
2023-03-01T01:01:00.915Z,91.43
2023-03-01T01:03:31.413Z,92.30
2023-03-01T01:06:01.863Z,91.96
2023-03-01T01:08:32.700Z,91.96
2023-03-01T01:11:04.387Z,93.58
2023-03-01T01:13:35.236Z,93.58
2023-03-01T01:16:06.399Z,94.50
2023-03-01T01:18:37.375Z,94.68
2023-03-01T01:21:11.419Z,94.32
2023-03-01T01:23:43.303Z,94.27
2023-03-01T01:26:23.123Z,94.27
2023-03-01T01:28:54.832Z,94.33
2023-03-01T01:31:26.171Z,93.90
2023-03-01T01:33:57.324Z,95.06
2023-03-01T01:36:28.224Z,95.06
2023-03-01T01:38:59.435Z,95.20
2023-03-01T01:41:31.109Z,95.65
2023-03-01T01:44:22.951Z,95.65
2023-03-01T01:47:05.268Z,96.00
2023-03-01T01:49:39.224Z,95.66
2023-03-01T01:52:18.173Z,95.95
2023-03-01T01:55:10.336Z,95.95
2023-03-01T01:57:43.770Z,95.69
2023-03-01T02:00:17.973Z,95.35
2023-03-01T02:02:51.041Z,95.35
2023-03-01T02:08:22.741Z,95.25
2023-03-01T02:13:51.422Z,94.82
2023-03-01T02:16:22.516Z,95.42
2023-03-01T02:18:53.596Z,95.31
2023-03-01T02:21:35.509Z,94.97
2023-03-01T02:24:13.178Z,95.13
2023-03-01T02:26:52.991Z,93.70
2023-03-01T02:29:24.742Z,93.70
2023-03-01T02:31:58.656Z,94.86
2023-03-01T02:34:31.125Z,94.86
2023-03-01T02:37:04.561Z,95.81
2023-03-01T02:39:42.035Z,95.61
2023-03-01T02:42:18.231Z,95.74
2023-03-01T02:44:50.088Z,96.25
2023-03-01T02:47:23.851Z,95.74
2023-03-01T02:49:57.656Z,95.31
2023-03-01T02:52:33.662Z,95.26
2023-03-01T02:55:15.793Z,95.26
2023-03-01T02:57:49.479Z,94.99
2023-03-01T03:00:31.776Z,94.53
2023-03-01T03:03:02.747Z,94.53
2023-03-01T03:05:36.312Z,94.13
2023-03-01T03:08:07.674Z,95.32
2023-03-01T03:10:41.201Z,95.32
2023-03-01T03:13:15.126Z,95.15
2023-03-01T03:15:46.213Z,95.15
2023-03-01T03:18:18.283Z,94.57
2023-03-01T03:20:49.912Z,94.91
2023-03-01T03:23:21.332Z,94.45
2023-03-01T03:25:52.973Z,94.27
2023-03-01T03:28:23.391Z,94.77
2023-03-01T03:30:53.814Z,94.09
2023-03-01T03:33:24.199Z,94.55
2023-03-01T03:35:54.720Z,94.55
2023-03-01T03:38:25.170Z,94.63
2023-03-01T03:41:04.704Z,94.08
2023-03-01T03:43:38.609Z,94.08
2023-03-01T03:46:10.198Z,95.13
2023-03-01T03:48:44.076Z,95.39
2023-03-01T03:51:17.163Z,95.24
2023-03-01T03:53:47.845Z,95.24
2023-03-01T03:56:18.228Z,95.55
2023-03-01T03:58:48.822Z,95.43
2023-03-01T04:01:19.437Z,96.11
2023-03-01T04:03:50.590Z,94.82
2023-03-01T04:06:21.014Z,94.82
2023-03-01T04:08:51.762Z,95.03
2023-03-01T04:11:22.483Z,95.38
2023-03-01T04:13:54.462Z,94.73
2023-03-01T04:16:25.533Z,95.38
2023-03-01T04:18:55.823Z,95.38
2023-03-01T04:21:26.144Z,96.00
2023-03-01T04:23:56.654Z,96.60
2023-03-01T04:26:27.602Z,96.68
2023-03-01T04:28:58.382Z,96.63
2023-03-01T04:31:29.306Z,96.29
2023-03-01T04:34:00.157Z,96.67
2023-03-01T04:36:31.872Z,96.07
2023-03-01T04:39:02.848Z,96.07
2023-03-01T04:41:34.913Z,96.46
2023-03-01T04:44:06.578Z,95.93
2023-03-01T04:46:40.979Z,95.49
2023-03-01T04:49:12.387Z,95.72
2023-03-01T04:51:43.166Z,95.72
2023-03-01T04:54:14.118Z,95.90
2023-03-01T04:56:45.206Z,95.38
2023-03-01T04:59:15.565Z,95.58
2023-03-01T05:01:46.307Z,94.97
2023-03-01T05:04:17.251Z,95.62
2023-03-01T05:06:47.522Z,95.62
2023-03-01T05:09:18.170Z,94.22
2023-03-01T05:11:48.589Z,94.43
2023-03-01T05:14:19.360Z,94.65
2023-03-01T05:16:49.601Z,94.54
2023-03-01T05:19:19.895Z,94.07
2023-03-01T05:21:50.953Z,93.86
2023-03-01T05:24:21.281Z,94.85
2023-03-01T05:26:51.834Z,95.36
2023-03-01T05:29:24.409Z,94.13
2023-03-01T05:34:52.670Z,94.38
2023-03-01T05:37:23.131Z,93.53
2023-03-01T05:39:53.491Z,93.51
2023-03-01T05:42:23.986Z,93.45
2023-03-01T05:44:54.867Z,93.28
2023-03-01T05:47:25.181Z,93.28
2023-03-01T05:49:55.610Z,92.04
2023-03-01T05:52:52.718Z,93.41
2023-03-01T05:55:27.080Z,93.14
2023-03-01T05:58:57.534Z,92.75
2023-03-01T06:01:01.830Z,91.24
2023-03-01T06:03:54.417Z,90.22
2023-03-01T06:06:29.103Z,89.52
2023-03-01T06:09:00.883Z,90.74
2023-03-01T06:11:36.236Z,90.96
2023-03-01T06:19:38.914Z,88.87
2023-03-01T06:22:12.700Z,89.13
2023-03-01T06:24:45.934Z,89.45
2023-03-01T06:27:22.232Z,90.46
2023-03-01T06:29:56.324Z,90.88
2023-03-01T06:32:33.781Z,90.39
2023-03-01T06:35:03.261Z,90.39
2023-03-01T06:37:34.277Z,89.80
2023-03-01T06:40:06.906Z,84.28
2023-03-01T06:42:40.301Z,81.47
2023-03-01T06:45:11.592Z,74.33
2023-03-01T06:47:44.633Z,72.59
2023-03-01T06:50:21.889Z,72.59
2023-03-01T06:52:55.506Z,70.39
2023-03-01T06:55:27.406Z,67.83
2023-03-01T06:57:59.107Z,64.21
2023-03-01T07:00:30.049Z,63.10
2023-03-01T07:03:20.448Z,64.91
2023-03-01T07:05:52.266Z,64.21
2023-03-01T07:08:23.963Z,61.46
2023-03-01T07:11:00.127Z,61.58
2023-03-01T07:13:32.641Z,60.95
2023-03-01T07:16:03.846Z,58.59
2023-03-01T07:18:35.035Z,58.61
2023-03-01T07:21:10.584Z,58.82
2023-03-01T07:23:47.655Z,59.35
2023-03-01T07:26:18.712Z,59.92
2023-03-01T07:28:49.114Z,57.25
2023-03-01T07:31:19.435Z,55.29
2023-03-01T07:33:50.544Z,57.65
2023-03-01T07:36:21.123Z,57.98
2023-03-01T07:38:53.046Z,58.75
2023-03-01T07:41:24.006Z,56.51
2023-03-01T07:43:54.592Z,58.07
2023-03-01T07:46:25.047Z,58.07
2023-03-01T07:48:56.124Z,60.46
2023-03-01T07:51:26.377Z,60.26
2023-03-01T07:53:56.731Z,59.66
2023-03-01T07:56:29.413Z,59.66
2023-03-01T07:59:02.836Z,52.31
2023-03-01T08:01:36.863Z,55.25
2023-03-01T08:04:09.578Z,55.25
2023-03-01T08:06:40.640Z,53.45
2023-03-01T08:09:11.592Z,52.25
2023-03-01T08:11:45.068Z,46.92
2023-03-01T08:14:16.164Z,47.75
2023-03-01T08:16:48.791Z,47.14
2023-03-01T08:19:19.988Z,47.15
2023-03-01T08:21:50.384Z,47.15
2023-03-01T08:24:21.331Z,43.46
2023-03-01T08:26:51.700Z,43.46
2023-03-01T08:29:23.025Z,40.55
2023-03-01T08:31:55.203Z,40.55
2023-03-01T08:34:25.684Z,41.63
2023-03-01T08:36:56.088Z,39.82
2023-03-01T08:39:26.411Z,38.77
2023-03-01T08:41:56.801Z,39.00
2023-03-01T08:44:27.220Z,38.81
2023-03-01T08:47:00.672Z,39.51
2023-03-01T08:49:30.369Z,37.71
2023-03-01T08:52:02.978Z,37.63
2023-03-01T08:54:34.017Z,37.63
2023-03-01T08:57:07.414Z,37.32
2023-03-01T08:59:38.218Z,37.54
2023-03-01T09:02:11.550Z,35.86
2023-03-01T09:04:42.499Z,35.86
2023-03-01T09:07:13.085Z,35.38
2023-03-01T09:09:43.458Z,35.38
2023-03-01T09:12:13.827Z,36.28
2023-03-01T09:14:44.876Z,38.13
2023-03-01T09:17:16.733Z,36.52
2023-03-01T09:19:47.623Z,37.15
2023-03-01T09:22:18.643Z,37.35
2023-03-01T09:24:49.494Z,37.35
2023-03-01T09:27:19.961Z,36.13
2023-03-01T09:29:50.387Z,36.13
2023-03-01T09:32:20.770Z,33.96
2023-03-01T09:34:51.471Z,33.96
2023-03-01T09:37:21.842Z,35.11
2023-03-01T09:39:52.428Z,36.19
2023-03-01T09:42:23.511Z,36.19
2023-03-01T09:45:14.981Z,35.58
2023-03-01T09:47:46.179Z,35.58
2023-03-01T09:50:19.685Z,34.52
2023-03-01T09:53:05.244Z,34.85
2023-03-01T09:55:42.529Z,35.11
2023-03-01T09:58:28.161Z,35.30
2023-03-01T10:01:01.409Z,35.30
2023-03-01T10:03:45.851Z,33.87
2023-03-01T10:06:34.974Z,34.85
2023-03-01T10:09:02.987Z,36.65
2023-03-01T10:11:42.718Z,36.65
2023-03-01T10:14:32.527Z,38.06
2023-03-01T10:17:05.900Z,36.19
2023-03-01T10:22:44.611Z,36.19
2023-03-01T10:25:25.440Z,38.79
2023-03-01T10:27:59.443Z,38.31
2023-03-01T10:30:36.831Z,37.36
2023-03-01T10:33:15.953Z,40.25
2023-03-01T10:35:46.975Z,42.10
2023-03-01T10:38:19.543Z,42.10
2023-03-01T10:40:58.518Z,41.48
2023-03-01T10:43:35.362Z,42.32
2023-03-01T10:48:54.601Z,43.33
2023-03-01T10:51:30.840Z,43.17
2023-03-01T10:54:04.756Z,41.66
2023-03-01T10:56:38.135Z,40.79
2023-03-01T10:59:11.623Z,40.79
2023-03-01T11:01:42.698Z,41.61
2023-03-01T11:04:20.614Z,42.59
2023-03-01T11:06:54.822Z,42.98
2023-03-01T11:09:26.501Z,41.24
2023-03-01T11:12:00.257Z,41.24
2023-03-01T11:14:33.816Z,43.66
2023-03-01T11:17:08.154Z,43.79
2023-03-01T11:19:40.556Z,43.79
2023-03-01T11:22:17.239Z,43.06
2023-03-01T11:25:09.022Z,44.63
2023-03-01T11:27:34.049Z,44.63
2023-03-01T11:30:16.291Z,43.20
2023-03-01T11:33:21.224Z,44.26
2023-03-01T11:35:59.514Z,43.25
2023-03-01T11:38:51.377Z,45.40
2023-03-01T11:41:34.283Z,46.96
2023-03-01T11:44:11.187Z,45.48
2023-03-01T11:47:03.587Z,44.95
2023-03-01T11:50:06.691Z,44.97
2023-03-01T11:52:55.471Z,47.36
2023-03-01T11:55:36.442Z,45.14
2023-03-01T11:58:26.270Z,47.00
2023-03-01T12:01:05.416Z,47.00
2023-03-01T12:03:55.849Z,46.38
2023-03-01T12:06:50.563Z,47.08
2023-03-01T12:12:35.838Z,45.09
2023-03-01T12:15:35.293Z,47.89
2023-03-01T12:18:14.051Z,47.69
2023-03-01T12:21:08.177Z,45.91
2023-03-01T12:23:58.034Z,43.11
2023-03-01T12:26:36.875Z,44.17
2023-03-01T12:29:46.228Z,42.64
2023-03-01T12:32:37.745Z,42.64
2023-03-01T12:35:13.626Z,45.38
2023-03-01T12:38:03.776Z,45.38
2023-03-01T12:41:05.979Z,47.50
2023-03-01T12:44:04.805Z,47.50
2023-03-01T12:46:53.258Z,46.27
2023-03-01T12:49:29.962Z,49.35
2023-03-01T12:52:21.442Z,50.10
2023-03-01T12:54:55.108Z,49.12
2023-03-01T12:57:31.679Z,46.74
2023-03-01T13:00:33.523Z,48.77
2023-03-01T13:03:28.784Z,52.17
2023-03-01T13:06:25.800Z,52.98
2023-03-01T13:09:04.765Z,52.98
2023-03-01T13:11:36.449Z,57.36
2023-03-01T13:14:28.138Z,59.08
2023-03-01T13:17:01.750Z,61.01
2023-03-01T13:19:32.718Z,62.10
2023-03-01T13:22:06.659Z,62.56
2023-03-01T13:24:43.829Z,62.21
2023-03-01T13:27:20.309Z,62.81
2023-03-01T13:29:56.366Z,63.63
2023-03-01T13:32:43.066Z,64.78
2023-03-01T13:37:50.125Z,66.35
2023-03-01T13:40:29.735Z,67.67
2023-03-01T13:43:06.013Z,67.14
2023-03-01T13:45:41.039Z,67.13
2023-03-01T13:48:14.931Z,69.30
2023-03-01T13:50:50.844Z,69.35
2023-03-01T13:53:30.201Z,69.35
2023-03-01T13:56:12.251Z,70.94
2023-03-01T13:58:51.437Z,70.64
2023-03-01T14:01:37.402Z,70.64
2023-03-01T14:07:23.728Z,69.94
2023-03-01T14:09:57.950Z,69.19
2023-03-01T14:12:47.115Z,69.08
2023-03-01T14:15:27.270Z,69.45
2023-03-01T14:18:04.014Z,69.95
2023-03-01T14:20:40.459Z,69.03
2023-03-01T14:23:16.894Z,70.79
2023-03-01T14:25:54.163Z,70.79
2023-03-01T14:28:35.324Z,69.20
2023-03-01T14:31:27.443Z,70.36
2023-03-01T14:33:58.882Z,70.25
2023-03-01T14:36:33.023Z,70.25
2023-03-01T14:39:05.616Z,69.90
2023-03-01T14:41:38.417Z,70.19
2023-03-01T14:44:15.547Z,70.43
2023-03-01T14:46:47.760Z,70.43
2023-03-01T14:49:24.126Z,72.12
2023-03-01T14:52:02.698Z,74.09
2023-03-01T14:54:42.946Z,74.96
2023-03-01T14:57:37.041Z,75.79
2023-03-01T15:00:09.412Z,75.79
2023-03-01T15:02:40.631Z,75.82
2023-03-01T15:05:13.441Z,76.51
2023-03-01T15:07:47.857Z,76.51
2023-03-01T15:10:24.691Z,76.55
2023-03-01T15:12:55.926Z,76.31
2023-03-01T15:15:46.616Z,75.14
2023-03-01T15:18:30.016Z,75.14
2023-03-01T15:21:29.368Z,76.52
2023-03-01T15:24:14.819Z,76.83
2023-03-01T15:27:09.712Z,77.40
2023-03-01T15:29:46.863Z,77.35
2023-03-01T15:32:29.203Z,77.24
2023-03-01T15:35:42.933Z,77.93
2023-03-01T15:38:39.003Z,77.89
2023-03-01T15:41:34.341Z,78.53
2023-03-01T15:44:35.037Z,78.63
2023-03-01T15:47:10.147Z,77.61
2023-03-01T15:49:54.904Z,78.29
2023-03-01T15:52:26.659Z,76.91
2023-03-01T15:55:03.477Z,76.91
2023-03-01T15:57:36.832Z,77.89
2023-03-01T16:00:12.400Z,77.64
2023-03-01T16:02:47.839Z,77.60
2023-03-01T16:05:25.183Z,78.39
2023-03-01T16:07:56.727Z,78.51
2023-03-01T16:10:28.856Z,78.55
2023-03-01T16:16:26.758Z,78.87
2023-03-01T16:21:54.521Z,79.09
2023-03-01T16:24:25.148Z,78.69
2023-03-01T16:26:56.678Z,78.69
2023-03-01T16:29:27.599Z,78.56
2023-03-01T16:32:00.630Z,77.98
2023-03-01T16:34:32.440Z,77.98
2023-03-01T16:37:06.386Z,77.29
2023-03-01T16:39:42.601Z,76.14
2023-03-01T16:42:13.859Z,76.03
2023-03-01T16:44:47.343Z,76.01
2023-03-01T16:47:27.702Z,76.04
2023-03-01T16:49:56.596Z,76.42
2023-03-01T16:52:28.636Z,76.97
2023-03-01T16:54:59.774Z,77.67
2023-03-01T16:57:30.381Z,77.94
2023-03-01T17:00:05.996Z,77.50
2023-03-01T17:02:59.005Z,76.94
2023-03-01T17:05:17.773Z,77.72
2023-03-01T17:07:51.915Z,78.38
2023-03-01T17:10:24.621Z,78.54
2023-03-01T17:12:56.825Z,77.75
2023-03-01T17:15:29.043Z,78.00
2023-03-01T17:18:04.292Z,77.65
2023-03-01T17:20:38.750Z,77.65
2023-03-01T17:23:12.852Z,78.31
2023-03-01T17:25:57.360Z,78.31
2023-03-01T17:28:36.240Z,77.48
2023-03-01T17:31:40.445Z,78.54
2023-03-01T17:34:15.664Z,78.54
2023-03-01T17:36:55.608Z,78.05
2023-03-01T17:39:39.725Z,78.82
2023-03-01T17:42:08.078Z,77.85
2023-03-01T17:44:43.926Z,77.85
2023-03-01T17:47:16.885Z,77.65
2023-03-01T17:49:48.936Z,77.23
2023-03-01T17:52:22.712Z,77.34
2023-03-01T17:54:53.431Z,77.34
2023-03-01T17:57:25.759Z,78.32
2023-03-01T18:00:16.950Z,78.32
2023-03-01T18:02:41.552Z,78.56
2023-03-01T18:05:42.901Z,78.56
2023-03-01T18:07:48.889Z,79.00
2023-03-01T18:10:21.113Z,79.72
2023-03-01T18:13:16.105Z,80.43
2023-03-01T18:15:50.127Z,80.03
2023-03-01T18:18:21.890Z,80.75
2023-03-01T18:21:00.705Z,81.35
2023-03-01T18:23:35.234Z,81.50
2023-03-01T18:26:18.728Z,81.47
2023-03-01T18:29:02.911Z,80.68
2023-03-01T18:31:35.706Z,80.70
2023-03-01T18:34:14.036Z,81.06
2023-03-01T18:37:00.597Z,81.23
2023-03-01T18:39:19.502Z,81.51
2023-03-01T18:41:51.459Z,81.51
2023-03-01T18:44:21.970Z,80.37
2023-03-01T18:46:52.749Z,80.37
2023-03-01T18:49:24.025Z,81.60
2023-03-01T18:51:54.404Z,81.03
2023-03-01T18:54:26.469Z,81.96
2023-03-01T18:56:56.786Z,81.96
2023-03-01T18:59:28.506Z,82.38
2023-03-01T19:02:04.812Z,82.01
2023-03-01T19:04:53.453Z,82.34
2023-03-01T19:07:30.716Z,81.90
2023-03-01T19:10:13.461Z,82.55
2023-03-01T19:12:46.775Z,81.85
2023-03-01T19:15:17.699Z,81.85
2023-03-01T19:17:53.610Z,83.15
2023-03-01T19:27:27.608Z,82.20
2023-03-01T19:46:31.786Z,84.04
2023-03-01T19:49:02.119Z,84.02
2023-03-01T19:51:55.284Z,83.84
2023-03-01T19:55:59.458Z,83.98
2023-03-01T19:58:05.705Z,84.46
2023-03-01T20:01:00.007Z,84.42
2023-03-01T20:03:35.346Z,84.42
2023-03-01T20:06:33.325Z,84.98
2023-03-01T20:09:20.756Z,84.70
2023-03-01T20:11:44.364Z,84.43
2023-03-01T20:14:19.080Z,84.67
2023-03-01T20:16:57.917Z,85.01
2023-03-01T20:19:32.408Z,84.69
2023-03-01T20:22:07.128Z,85.02
2023-03-01T20:24:38.912Z,84.77
2023-03-01T20:27:19.732Z,84.77
2023-03-01T20:30:00.857Z,83.98
2023-03-01T20:32:33.209Z,84.02
2023-03-01T20:35:09.506Z,84.16
2023-03-01T20:37:41.913Z,84.08
2023-03-01T20:40:14.429Z,84.97
2023-03-01T20:42:45.431Z,85.19
2023-03-01T20:45:18.725Z,84.07
2023-03-01T20:47:50.355Z,84.08
2023-03-01T20:50:33.174Z,84.08
2023-03-01T20:53:04.617Z,84.92
2023-03-01T20:55:41.123Z,85.33
2023-03-01T20:58:13.411Z,86.00
2023-03-01T21:00:45.953Z,85.51
2023-03-01T21:03:17.979Z,85.51
2023-03-01T21:05:50.344Z,87.11
2023-03-01T21:08:24.023Z,86.68
2023-03-01T21:10:58.915Z,86.68
2023-03-01T21:13:34.319Z,87.60
2023-03-01T21:16:10.861Z,87.60
2023-03-01T21:18:42.700Z,87.49
2023-03-01T21:21:16.024Z,87.64
2023-03-01T21:23:47.261Z,87.73
2023-03-01T21:26:23.717Z,87.83
2023-03-01T21:28:58.953Z,88.55
2023-03-01T21:31:34.280Z,88.66
2023-03-01T21:34:09.763Z,88.83
2023-03-01T21:36:44.906Z,88.83
2023-03-01T21:39:15.334Z,88.41
2023-03-01T21:41:48.236Z,88.41
2023-03-01T21:44:41.229Z,88.85
2023-03-01T21:47:04.647Z,89.52
2023-03-01T21:49:36.813Z,89.57
2023-03-01T21:52:09.825Z,89.27
2023-03-01T21:54:47.744Z,88.98
2023-03-01T21:57:23.000Z,88.48
2023-03-01T21:59:57.477Z,88.48
2023-03-01T22:02:29.198Z,88.68
2023-03-01T22:05:00.775Z,88.83
2023-03-01T22:07:32.608Z,88.24
2023-03-01T22:10:05.874Z,88.29
2023-03-01T22:12:37.824Z,88.27
2023-03-01T22:15:11.201Z,87.56
2023-03-01T22:17:41.662Z,87.60
2023-03-01T22:20:12.746Z,87.60
2023-03-01T22:22:43.289Z,87.86
2023-03-01T22:25:13.836Z,87.64
2023-03-01T22:27:44.302Z,87.63
2023-03-01T22:30:15.464Z,88.23
2023-03-01T22:32:47.474Z,88.45
2023-03-01T22:35:18.657Z,89.34
2023-03-01T22:37:48.996Z,89.47
2023-03-01T22:40:19.340Z,89.00
2023-03-01T22:42:50.436Z,88.84
2023-03-01T22:45:20.943Z,88.84
2023-03-01T22:47:51.792Z,89.09
2023-03-01T22:50:22.275Z,90.06
2023-03-01T22:52:52.802Z,89.61
2023-03-01T22:55:24.052Z,90.01
2023-03-01T22:57:55.075Z,89.84
2023-03-01T23:00:27.209Z,90.12
2023-03-01T23:02:58.438Z,90.12
2023-03-01T23:05:28.988Z,89.71
2023-03-01T23:07:59.413Z,90.12
2023-03-01T23:10:29.685Z,89.60
2023-03-01T23:13:00.117Z,89.60
2023-03-01T23:15:31.099Z,89.46
2023-03-01T23:18:01.610Z,89.54
2023-03-01T23:20:39.851Z,89.27
2023-03-01T23:23:10.304Z,89.97
2023-03-01T23:25:40.888Z,89.97
2023-03-01T23:28:11.125Z,89.88
2023-03-01T23:30:42.143Z,90.04
2023-03-01T23:33:13.053Z,90.04
2023-03-01T23:35:43.957Z,89.52
2023-03-01T23:38:14.523Z,89.35
2023-03-01T23:40:45.617Z,89.52
2023-03-01T23:43:16.280Z,89.52
2023-03-01T23:45:48.059Z,89.73
2023-03-01T23:48:18.715Z,89.93
2023-03-01T23:50:49.813Z,90.29
2023-03-01T23:53:21.206Z,90.29
2023-03-01T23:55:54.269Z,90.30
2023-03-01T23:58:24.940Z,90.32
